createdAt,value
2017-08-10T00:02:57.831Z,83.19
2017-08-10T00:03:37.030Z,82.57
2017-08-10T00:04:17.411Z,82.32
2017-08-10T00:04:57.911Z,81.95
2017-08-10T00:05:38.436Z,82.14
2017-08-10T00:06:18.908Z,82.32
2017-08-10T00:06:59.408Z,82.09
2017-08-10T00:09:10.588Z,82.14
2017-08-10T00:09:51.955Z,81.66
2017-08-10T00:10:32.304Z,82.52
2017-08-10T00:11:13.250Z,82.48
2017-08-10T00:11:53.897Z,81.85
2017-08-10T00:12:34.337Z,82.32
2017-08-10T00:13:15.673Z,83
2017-08-10T00:13:56.283Z,82.52
2017-08-10T00:14:36.493Z,82.09
2017-08-10T00:15:17.381Z,82.86
2017-08-10T00:15:57.861Z,82.48
2017-08-10T00:16:38.561Z,82.76
2017-08-10T00:17:19.265Z,82.48
2017-08-10T00:17:59.990Z,82.96
2017-08-10T00:18:40.396Z,82.29
2017-08-10T00:19:20.872Z,82.76
2017-08-10T00:20:01.335Z,82.48
2017-08-10T00:20:41.757Z,82.76
2017-08-10T00:21:22.278Z,83.53
2017-08-10T00:22:02.748Z,82.67
2017-08-10T00:22:43.090Z,82.86
2017-08-10T00:23:23.529Z,82.48
2017-08-10T00:24:04.072Z,83.53
2017-08-10T00:24:44.616Z,82.76
2017-08-10T00:25:25.041Z,83.25
2017-08-10T00:26:05.409Z,83.44
2017-08-10T00:26:45.859Z,83.15
2017-08-10T00:27:26.365Z,84.11
2017-08-10T00:28:06.693Z,83.72
2017-08-10T00:28:47.096Z,83.44
2017-08-10T00:29:27.565Z,83.53
2017-08-10T00:30:07.921Z,83.63
2017-08-10T00:30:48.397Z,84.11
2017-08-10T00:31:28.717Z,84.39
2017-08-10T00:32:09.392Z,84.2
2017-08-10T00:32:50.040Z,84.11
2017-08-10T00:33:30.647Z,84.2
2017-08-10T00:34:10.919Z,84.3
2017-08-10T00:34:51.555Z,84.11
2017-08-10T00:35:31.792Z,83.82
2017-08-10T00:36:12.203Z,83.63
2017-08-10T00:36:52.608Z,83.92
2017-08-10T00:37:33.052Z,83.53
2017-08-10T00:38:13.464Z,83.34
2017-08-10T00:38:54.022Z,84.01
2017-08-10T00:39:34.363Z,84.11
2017-08-10T00:40:15.199Z,83.72
2017-08-10T00:40:55.651Z,83.76
2017-08-10T00:41:36.132Z,83.09
2017-08-10T00:42:16.445Z,83.44
2017-08-10T00:42:56.944Z,83.29
2017-08-10T00:43:37.358Z,83.48
2017-08-10T00:44:17.973Z,83.76
2017-08-10T00:44:58.261Z,83.67
2017-08-10T00:45:38.889Z,83.92
2017-08-10T00:46:19.281Z,84.05
2017-08-10T00:46:59.673Z,84.05
2017-08-10T00:47:40.124Z,83.63
2017-08-10T00:48:20.477Z,83.76
2017-08-10T00:49:00.927Z,83.95
2017-08-10T00:49:41.273Z,83.19
2017-08-10T00:50:21.742Z,82.9
2017-08-10T00:51:02.194Z,83.67
2017-08-10T00:51:42.550Z,83.38
2017-08-10T00:52:22.993Z,83.58
2017-08-10T00:53:03.412Z,83.67
2017-08-10T00:53:43.806Z,83.48
2017-08-10T00:54:24.273Z,83.38
2017-08-10T00:55:04.647Z,83.67
2017-08-10T00:55:45.036Z,84.05
2017-08-10T00:56:25.953Z,84.15
2017-08-10T00:57:06.411Z,83.86
2017-08-10T00:57:47.308Z,84.15
2017-08-10T00:58:27.967Z,84.05
2017-08-10T00:59:08.326Z,84.05
2017-08-10T00:59:49.008Z,83.48
2017-08-10T01:00:29.579Z,83.95
2017-08-10T01:01:10.092Z,83.67
2017-08-10T01:01:50.567Z,84.3
2017-08-10T01:02:30.934Z,83.38
2017-08-10T01:03:11.595Z,83.86
2017-08-10T01:03:53.205Z,84.34
2017-08-10T01:04:33.882Z,84.34
2017-08-10T01:05:14.589Z,84.58
2017-08-10T01:05:54.930Z,84.05
2017-08-10T01:06:35.424Z,84.44
2017-08-10T01:07:16.055Z,84.34
2017-08-10T01:07:56.629Z,84.63
2017-08-10T01:08:39.846Z,84.05
2017-08-10T01:09:20.363Z,84.82
2017-08-10T01:10:00.653Z,84.44
2017-08-10T01:10:41.174Z,83.92
2017-08-10T01:11:21.610Z,84.39
2017-08-10T01:12:02.202Z,84.2
2017-08-10T01:12:42.700Z,84.53
2017-08-10T01:13:23.239Z,84.72
2017-08-10T01:14:03.943Z,85.16
2017-08-10T01:14:44.606Z,84.44
2017-08-10T01:15:26.474Z,84.25
2017-08-10T01:16:06.993Z,84.25
2017-08-10T01:16:49.279Z,84.39
2017-08-10T01:17:30.221Z,85.01
2017-08-10T01:18:11.660Z,84.63
2017-08-10T01:18:52.353Z,84.44
2017-08-10T01:21:59.239Z,84.3
2017-08-10T01:22:53.674Z,85.21
2017-08-10T01:23:35.307Z,84.3
2017-08-10T01:24:15.869Z,84.97
2017-08-10T01:24:56.240Z,85.45
2017-08-10T01:25:36.685Z,85.83
2017-08-10T01:26:17.066Z,85.35
2017-08-10T01:26:57.486Z,85.74
2017-08-10T01:27:37.905Z,85.64
2017-08-10T01:28:18.231Z,85.74
2017-08-10T01:28:58.678Z,86.5
2017-08-10T01:29:39.157Z,86.5
2017-08-10T01:30:19.557Z,87.17
2017-08-10T01:30:59.952Z,86.88
2017-08-10T01:31:40.381Z,85.93
2017-08-10T01:32:20.719Z,86.02
2017-08-10T01:33:01.145Z,85.93
2017-08-10T01:33:41.565Z,86.79
2017-08-10T01:34:21.968Z,86.5
2017-08-10T01:35:02.362Z,86.88
2017-08-10T01:35:42.814Z,86.79
2017-08-10T01:36:23.176Z,86.6
2017-08-10T01:37:03.578Z,86.5
2017-08-10T01:37:43.962Z,86.41
2017-08-10T01:38:24.388Z,87.17
2017-08-10T01:39:04.772Z,86.5
2017-08-10T01:39:45.233Z,86.02
2017-08-10T01:40:25.594Z,86.07
2017-08-10T01:41:05.963Z,86.83
2017-08-10T01:41:46.393Z,86.16
2017-08-10T01:42:26.745Z,85.88
2017-08-10T01:43:07.145Z,86.07
2017-08-10T01:43:47.634Z,86.83
2017-08-10T01:44:27.997Z,85.68
2017-08-10T01:45:08.413Z,85.58
2017-08-10T01:45:48.815Z,86.16
2017-08-10T01:46:29.217Z,86.93
2017-08-10T01:47:09.582Z,86.88
2017-08-10T01:47:50.010Z,87.02
2017-08-10T01:48:30.381Z,87.27
2017-08-10T01:49:10.798Z,87.79
2017-08-10T01:49:51.163Z,87.17
2017-08-10T01:50:31.600Z,87.55
2017-08-10T01:51:11.985Z,87.65
2017-08-10T01:51:52.387Z,87.74
2017-08-10T01:52:32.790Z,87.84
2017-08-10T01:53:13.198Z,87.17
2017-08-10T01:53:53.600Z,87.17
2017-08-10T01:54:33.988Z,87.46
2017-08-10T01:55:14.406Z,87.65
2017-08-10T01:55:54.767Z,87.84
2017-08-10T01:56:35.150Z,87.94
2017-08-10T01:57:15.537Z,88.03
2017-08-10T01:57:55.976Z,87.84
2017-08-10T01:58:36.352Z,87.84
2017-08-10T01:59:16.744Z,87.55
2017-08-10T01:59:57.081Z,87.46
2017-08-10T02:00:37.500Z,87.55
2017-08-10T02:01:17.896Z,88.03
2017-08-10T02:01:58.312Z,89.18
2017-08-10T02:02:38.715Z,89.47
2017-08-10T02:03:19.121Z,89.47
2017-08-10T02:03:59.531Z,89.37
2017-08-10T02:04:39.921Z,87.84
2017-08-10T02:05:20.380Z,87.74
2017-08-10T02:06:00.797Z,87.65
2017-08-10T02:06:41.160Z,88.23
2017-08-10T02:07:21.573Z,88.51
2017-08-10T02:08:01.978Z,89.57
2017-08-10T02:08:42.367Z,89.86
2017-08-10T02:09:22.788Z,90.05
2017-08-10T02:10:03.162Z,90.05
2017-08-10T02:10:43.620Z,89.57
2017-08-10T02:11:23.984Z,90.05
2017-08-10T02:12:04.450Z,90.05
2017-08-10T02:12:44.847Z,89.95
2017-08-10T02:13:25.247Z,90.33
2017-08-10T02:14:05.644Z,90.72
2017-08-10T02:14:46.029Z,90.72
2017-08-10T02:15:26.472Z,90.43
2017-08-10T02:16:06.851Z,90
2017-08-10T02:16:47.248Z,90.81
2017-08-10T02:17:27.629Z,91.1
2017-08-10T02:18:08.058Z,90.53
2017-08-10T02:18:48.468Z,90.39
2017-08-10T02:19:28.859Z,90.62
2017-08-10T02:20:09.268Z,90.05
2017-08-10T02:20:49.653Z,89.95
2017-08-10T02:21:30.034Z,90.33
2017-08-10T02:22:10.474Z,90.33
2017-08-10T02:22:50.861Z,89.95
2017-08-10T02:23:31.218Z,90.43
2017-08-10T02:24:11.603Z,90.23
2017-08-10T02:24:52.013Z,90.72
2017-08-10T02:25:32.414Z,90.23
2017-08-10T02:26:12.798Z,90.23
2017-08-10T02:26:53.238Z,89.47
2017-08-10T02:27:33.618Z,90.05
2017-08-10T02:28:13.996Z,89.37
2017-08-10T02:28:54.438Z,88.7
2017-08-10T02:29:34.794Z,89.28
2017-08-10T02:30:15.207Z,88.51
2017-08-10T02:30:55.590Z,87.65
2017-08-10T02:31:35.967Z,88.03
2017-08-10T02:32:16.427Z,87.74
2017-08-10T02:32:56.841Z,88.42
2017-08-10T02:33:37.229Z,88.23
2017-08-10T02:34:17.577Z,88.32
2017-08-10T02:34:58.609Z,88.32
2017-08-10T02:35:39.128Z,88.51
2017-08-10T02:36:19.522Z,88.51
2017-08-10T02:36:59.961Z,88.03
2017-08-10T02:37:40.406Z,88.13
2017-08-10T02:38:20.840Z,87.37
2017-08-10T02:39:01.410Z,87.94
2017-08-10T02:39:41.702Z,87.37
2017-08-10T02:40:22.040Z,87.55
2017-08-10T02:41:02.598Z,86.98
2017-08-10T02:41:42.955Z,87.55
2017-08-10T02:42:23.352Z,87.84
2017-08-10T02:43:03.758Z,87.65
2017-08-10T02:43:44.080Z,87.94
2017-08-10T02:44:24.493Z,88.32
2017-08-10T02:45:04.924Z,87.46
2017-08-10T02:45:45.281Z,87.84
2017-08-10T02:46:25.696Z,88.32
2017-08-10T02:47:06.147Z,87.65
2017-08-10T02:47:46.538Z,87.65
2017-08-10T02:48:26.948Z,88.03
2017-08-10T02:49:07.324Z,87.65
2017-08-10T02:49:47.696Z,87.84
2017-08-10T02:50:28.127Z,87.74
2017-08-10T02:51:08.494Z,87.94
2017-08-10T02:51:48.922Z,87.65
2017-08-10T02:52:29.380Z,88.13
2017-08-10T02:53:09.747Z,88.13
2017-08-10T02:53:50.189Z,88.32
2017-08-10T02:54:30.590Z,87.65
2017-08-10T02:55:10.962Z,87.84
2017-08-10T02:55:51.331Z,88.61
2017-08-10T02:56:31.748Z,87.74
2017-08-10T02:57:12.179Z,88.61
2017-08-10T02:57:52.618Z,88.42
2017-08-10T02:58:33.004Z,88.8
2017-08-10T02:59:13.426Z,88.32
2017-08-10T02:59:53.831Z,88.32
2017-08-10T03:00:34.252Z,88.99
2017-08-10T03:01:14.649Z,88.42
2017-08-10T03:01:55.034Z,88.03
2017-08-10T03:02:35.511Z,87.94
2017-08-10T03:03:15.922Z,88.51
2017-08-10T03:03:56.302Z,87.65
2017-08-10T03:04:36.677Z,88.08
2017-08-10T03:05:17.121Z,87.74
2017-08-10T03:05:57.520Z,87.55
2017-08-10T03:06:37.978Z,88.13
2017-08-10T03:07:18.342Z,87.46
2017-08-10T03:07:58.763Z,88.32
2017-08-10T03:08:39.191Z,87.94
2017-08-10T03:09:19.549Z,88.61
2017-08-10T03:09:59.930Z,88.51
2017-08-10T03:10:40.320Z,89.37
2017-08-10T03:11:20.721Z,89.37
2017-08-10T03:12:01.147Z,89.86
2017-08-10T03:12:41.576Z,89.37
2017-08-10T03:13:21.950Z,90.05
2017-08-10T03:14:02.369Z,89.95
2017-08-10T03:14:42.826Z,90.05
2017-08-10T03:15:23.189Z,89.86
2017-08-10T03:16:03.602Z,90.33
2017-08-10T03:16:44.154Z,90.43
2017-08-10T03:17:24.631Z,89.95
2017-08-10T03:18:04.985Z,90
2017-08-10T03:18:45.374Z,90.48
2017-08-10T03:19:25.776Z,90.86
2017-08-10T03:20:06.202Z,91.53
2017-08-10T03:20:46.583Z,91.05
2017-08-10T03:21:27.016Z,91.44
2017-08-10T03:22:07.432Z,91.34
2017-08-10T03:22:47.804Z,91.53
2017-08-10T03:23:28.188Z,91.34
2017-08-10T03:24:08.575Z,91.44
2017-08-10T03:24:48.993Z,90.67
2017-08-10T03:25:29.418Z,91.15
2017-08-10T03:26:09.822Z,91.05
2017-08-10T03:26:50.224Z,91.15
2017-08-10T03:27:30.661Z,91.44
2017-08-10T03:28:11.016Z,91.82
2017-08-10T03:28:51.417Z,92.78
2017-08-10T03:29:31.807Z,92.3
2017-08-10T03:30:12.224Z,92.78
2017-08-10T03:30:52.648Z,93.16
2017-08-10T03:31:33.041Z,93.07
2017-08-10T03:32:13.465Z,93.07
2017-08-10T03:32:53.851Z,93.26
2017-08-10T03:33:34.265Z,93.93
2017-08-10T03:34:14.662Z,93.54
2017-08-10T03:34:55.054Z,93.93
2017-08-10T03:35:35.476Z,94.6
2017-08-10T03:36:15.849Z,93.93
2017-08-10T03:36:56.235Z,93.54
2017-08-10T03:37:36.670Z,93.93
2017-08-10T03:38:17.087Z,94.12
2017-08-10T03:38:57.452Z,94.4
2017-08-10T03:39:37.908Z,94.69
2017-08-10T03:40:18.374Z,94.31
2017-08-10T03:40:58.765Z,93.93
2017-08-10T03:41:39.163Z,93.83
2017-08-10T03:42:19.561Z,92.68
2017-08-10T03:42:59.921Z,92.3
2017-08-10T03:43:40.368Z,92.4
2017-08-10T03:44:20.750Z,92.4
2017-08-10T03:45:01.140Z,92.49
2017-08-10T03:45:41.535Z,92.68
2017-08-10T03:46:21.892Z,92.3
2017-08-10T03:47:02.322Z,93.07
2017-08-10T03:47:42.753Z,93.35
2017-08-10T03:48:23.113Z,93.74
2017-08-10T03:49:03.532Z,93.16
2017-08-10T03:49:43.902Z,92.78
2017-08-10T03:50:24.315Z,93.26
2017-08-10T03:51:04.688Z,93.74
2017-08-10T03:51:45.114Z,94.02
2017-08-10T03:52:25.488Z,93.45
2017-08-10T03:53:05.892Z,94.5
2017-08-10T03:53:46.315Z,94.65
2017-08-10T03:54:26.707Z,94.79
2017-08-10T03:55:07.071Z,94.79
2017-08-10T03:55:47.507Z,94.69
2017-08-10T03:56:27.875Z,94.4
2017-08-10T03:57:08.287Z,94.12
2017-08-10T03:57:48.702Z,94.6
2017-08-10T03:58:29.094Z,94.5
2017-08-10T03:59:09.486Z,94.31
2017-08-10T03:59:49.895Z,94.98
2017-08-10T04:00:30.299Z,94.5
2017-08-10T04:01:10.724Z,94.12
2017-08-10T04:01:51.126Z,94.79
2017-08-10T04:02:31.520Z,94.79
2017-08-10T04:03:11.910Z,93.93
2017-08-10T04:03:52.345Z,94.6
2017-08-10T04:04:32.754Z,94.6
2017-08-10T04:05:13.118Z,94.6
2017-08-10T04:05:53.629Z,94.4
2017-08-10T04:06:33.998Z,94.55
2017-08-10T04:07:14.402Z,94.84
2017-08-10T04:07:54.801Z,94.84
2017-08-10T04:08:35.193Z,95.41
2017-08-10T04:09:15.642Z,96.08
2017-08-10T04:09:56.027Z,96.08
2017-08-10T04:10:36.465Z,96.47
2017-08-10T04:11:16.852Z,96.47
2017-08-10T04:11:57.435Z,96.56
2017-08-10T04:12:37.784Z,97.23
2017-08-10T04:13:18.293Z,97.52
2017-08-10T04:13:58.726Z,98
2017-08-10T04:14:39.141Z,97.8
2017-08-10T04:15:19.611Z,97.13
2017-08-10T04:15:59.937Z,98.38
2017-08-10T04:16:40.328Z,98.09
2017-08-10T04:17:20.744Z,98.28
2017-08-10T04:18:01.218Z,98.47
2017-08-10T04:18:41.549Z,98.57
2017-08-10T04:19:21.997Z,98.47
2017-08-10T04:20:02.435Z,98.38
2017-08-10T04:20:42.875Z,98.19
2017-08-10T04:21:23.299Z,98.66
2017-08-10T04:22:03.702Z,98.57
2017-08-10T04:22:44.097Z,98.66
2017-08-10T04:23:24.457Z,98.57
2017-08-10T04:24:04.892Z,98.57
2017-08-10T04:24:45.274Z,98.66
2017-08-10T04:25:25.681Z,98.19
2017-08-10T04:26:06.091Z,98.19
2017-08-10T04:26:46.508Z,98
2017-08-10T04:27:26.885Z,98.19
2017-08-10T04:28:07.296Z,97.9
2017-08-10T04:28:47.724Z,96.84
2017-08-10T04:29:28.111Z,96.56
2017-08-10T04:30:08.518Z,97.33
2017-08-10T04:30:48.960Z,97.13
2017-08-10T04:31:29.330Z,96.47
2017-08-10T04:32:09.728Z,97.04
2017-08-10T04:32:50.151Z,97.42
2017-08-10T04:33:30.563Z,97.71
2017-08-10T04:34:10.946Z,98.38
2017-08-10T04:34:51.355Z,97.04
2017-08-10T04:35:31.738Z,97.9
2017-08-10T04:36:12.141Z,97.71
2017-08-10T04:36:52.533Z,97.42
2017-08-10T04:37:32.971Z,98.38
2017-08-10T04:38:13.387Z,98.09
2017-08-10T04:38:53.821Z,98.28
2017-08-10T04:39:34.198Z,98.38
2017-08-10T04:40:14.594Z,97.13
2017-08-10T04:40:55.019Z,97.13
2017-08-10T04:41:35.462Z,97.28
2017-08-10T04:42:15.878Z,97.38
2017-08-10T04:42:56.259Z,97.23
2017-08-10T04:43:36.659Z,97.75
2017-08-10T04:44:17.043Z,98
2017-08-10T04:44:57.472Z,98.09
2017-08-10T04:45:37.830Z,98
2017-08-10T04:46:18.322Z,97.33
2017-08-10T04:46:58.756Z,97.13
2017-08-10T04:47:39.153Z,97.8
2017-08-10T04:48:19.546Z,97.28
2017-08-10T04:48:59.982Z,98.24
2017-08-10T04:49:40.382Z,98.43
2017-08-10T04:50:20.764Z,98.05
2017-08-10T04:51:01.154Z,97.85
2017-08-10T04:51:41.561Z,97.38
2017-08-10T04:52:22.014Z,98.05
2017-08-10T04:53:02.476Z,96.7
2017-08-10T04:53:42.900Z,97.09
2017-08-10T04:54:23.336Z,96.7
2017-08-10T04:55:03.741Z,96.89
2017-08-10T04:55:44.136Z,96.89
2017-08-10T04:56:24.554Z,96.89
2017-08-10T04:57:04.962Z,96.7
2017-08-10T04:57:45.461Z,96.7
2017-08-10T04:58:25.871Z,96.56
2017-08-10T04:59:06.246Z,96.94
2017-08-10T04:59:46.619Z,96.66
2017-08-10T05:00:27.047Z,96.66
2017-08-10T05:01:07.444Z,96.66
2017-08-10T05:01:47.942Z,96.84
2017-08-10T05:02:28.295Z,96.56
2017-08-10T05:03:08.691Z,96.47
2017-08-10T05:03:49.112Z,97.04
2017-08-10T05:04:29.487Z,96.56
2017-08-10T05:05:09.932Z,96.66
2017-08-10T05:05:50.319Z,96.27
2017-08-10T05:06:30.843Z,96.56
2017-08-10T05:07:11.240Z,96.75
2017-08-10T05:07:51.620Z,96.56
2017-08-10T05:08:32.042Z,96.18
2017-08-10T05:09:12.463Z,95.41
2017-08-10T05:09:52.878Z,94.74
2017-08-10T05:10:33.290Z,95.46
2017-08-10T05:12:31.249Z,95.36
2017-08-10T05:13:11.594Z,95.51
2017-08-10T05:13:52.012Z,95.31
2017-08-10T05:14:32.410Z,95.46
2017-08-10T05:15:12.831Z,96.27
2017-08-10T05:15:53.226Z,96.27
2017-08-10T05:16:33.632Z,96.37
2017-08-10T05:17:14.452Z,95.98
2017-08-10T05:17:54.824Z,95.6
2017-08-10T05:18:35.216Z,95.6
2017-08-10T05:19:15.624Z,95.31
2017-08-10T05:19:56.042Z,94.84
2017-08-10T05:20:36.360Z,94.74
2017-08-10T05:21:16.841Z,95.22
2017-08-10T05:21:57.203Z,95.03
2017-08-10T05:22:37.708Z,95.12
2017-08-10T05:23:18.094Z,94.17
2017-08-10T05:23:58.487Z,94.26
2017-08-10T05:24:38.957Z,94.84
2017-08-10T05:25:19.405Z,93.98
2017-08-10T05:25:59.821Z,94.07
2017-08-10T05:26:40.273Z,94.84
2017-08-10T05:27:20.677Z,93.69
2017-08-10T05:28:01.046Z,93.21
2017-08-10T05:28:41.477Z,93.78
2017-08-10T05:29:21.960Z,93.3
2017-08-10T05:30:02.388Z,93.3
2017-08-10T05:30:42.826Z,93.78
2017-08-10T05:31:23.269Z,94.07
2017-08-10T05:32:03.680Z,93.98
2017-08-10T05:32:44.061Z,93.4
2017-08-10T05:33:24.438Z,93.49
2017-08-10T05:34:04.859Z,93.59
2017-08-10T05:34:45.213Z,93.3
2017-08-10T05:35:25.716Z,93.78
2017-08-10T05:36:06.111Z,93.88
2017-08-10T05:36:46.570Z,94.45
2017-08-10T05:37:26.984Z,94.84
2017-08-10T05:38:07.366Z,95.22
2017-08-10T05:38:47.799Z,95.03
2017-08-10T05:39:28.339Z,94.93
2017-08-10T05:40:08.759Z,95.22
2017-08-10T05:40:49.499Z,94.93
2017-08-10T05:41:29.950Z,95.12
2017-08-10T05:42:10.395Z,95.12
2017-08-10T05:42:50.768Z,95.41
2017-08-10T05:43:31.256Z,95.22
2017-08-10T05:44:11.511Z,95.51
2017-08-10T05:44:51.919Z,95.41
2017-08-10T05:45:32.330Z,95.7
2017-08-10T05:46:12.740Z,95.98
2017-08-10T05:46:53.097Z,96.08
2017-08-10T05:47:33.514Z,96.37
2017-08-10T05:48:13.890Z,96.84
2017-08-10T05:48:54.295Z,97.23
2017-08-10T05:49:34.691Z,97.71
2017-08-10T05:50:15.097Z,97.28
2017-08-10T05:50:55.465Z,97.66
2017-08-10T05:51:35.913Z,98.05
2017-08-10T05:52:16.326Z,98.24
2017-08-10T05:52:56.645Z,98.24
2017-08-10T05:53:37.130Z,98.14
2017-08-10T05:54:17.523Z,98.14
2017-08-10T05:54:57.897Z,98.14
2017-08-10T05:55:38.309Z,97.95
2017-08-10T05:56:18.751Z,98.33
2017-08-10T05:56:59.127Z,98.33
2017-08-10T05:57:39.578Z,98.24
2017-08-10T05:58:19.989Z,97.75
2017-08-10T05:59:00.346Z,97.85
2017-08-10T05:59:40.744Z,97.75
2017-08-10T06:00:21.142Z,97.38
2017-08-10T06:01:01.638Z,97.33
2017-08-10T06:01:42.028Z,97.14
2017-08-10T06:02:22.473Z,97.56
2017-08-10T06:03:02.845Z,97.23
2017-08-10T06:03:43.214Z,97.23
2017-08-10T06:04:23.676Z,97.52
2017-08-10T06:05:19.292Z,97.61
2017-08-10T06:05:59.803Z,98.1
2017-08-10T06:06:40.261Z,97.71
2017-08-10T06:07:20.669Z,96.94
2017-08-10T06:08:01.124Z,96.66
2017-08-10T06:08:41.552Z,96.56
2017-08-10T06:09:21.926Z,96.08
2017-08-10T06:10:02.334Z,96.75
2017-08-10T06:10:42.708Z,96.08
2017-08-10T06:11:23.095Z,95.7
2017-08-10T06:12:03.475Z,95.51
2017-08-10T06:12:43.937Z,95.41
2017-08-10T06:13:24.383Z,95.31
2017-08-10T06:14:04.778Z,95.03
2017-08-10T06:14:45.283Z,95.36
2017-08-10T06:15:25.633Z,95.07
2017-08-10T06:16:06.053Z,95.41
2017-08-10T06:16:46.454Z,94.69
2017-08-10T06:17:26.862Z,95.26
2017-08-10T06:18:07.285Z,94.5
2017-08-10T06:18:47.703Z,94.59
2017-08-10T06:19:28.124Z,95.26
2017-08-10T06:20:08.589Z,94.89
2017-08-10T06:20:48.973Z,94.69
2017-08-10T06:21:29.417Z,94.69
2017-08-10T06:22:09.742Z,93.93
2017-08-10T06:22:50.255Z,94.02
2017-08-10T06:23:30.780Z,94.02
2017-08-10T06:24:11.221Z,93.63
2017-08-10T06:24:51.603Z,93.44
2017-08-10T06:25:32.055Z,93.54
2017-08-10T06:26:12.409Z,93.35
2017-08-10T06:26:52.816Z,93.63
2017-08-10T06:27:33.408Z,93.06
2017-08-10T06:28:13.843Z,92.49
2017-08-10T06:28:54.492Z,92.77
2017-08-10T06:29:34.835Z,93.63
2017-08-10T06:30:15.378Z,93.35
2017-08-10T06:30:55.833Z,93.16
2017-08-10T06:31:36.368Z,92.97
2017-08-10T06:32:16.739Z,92.1
2017-08-10T06:32:57.114Z,91.63
2017-08-10T06:33:37.601Z,91.91
2017-08-10T06:34:18.062Z,91.53
2017-08-10T06:34:58.509Z,92.58
2017-08-10T06:35:39.048Z,93.16
2017-08-10T06:36:19.553Z,92.97
2017-08-10T06:36:59.919Z,92.2
2017-08-10T06:37:40.340Z,92.49
2017-08-10T06:38:20.778Z,93.16
2017-08-10T06:39:01.181Z,93.54
2017-08-10T06:39:41.592Z,94.02
2017-08-10T06:40:21.980Z,94.4
2017-08-10T06:41:02.347Z,93.93
2017-08-10T06:41:42.897Z,93.73
2017-08-10T06:42:23.255Z,93.93
2017-08-10T06:43:03.812Z,93.93
2017-08-10T06:43:44.167Z,93.83
2017-08-10T06:44:24.635Z,94.59
2017-08-10T06:45:05.138Z,94.31
2017-08-10T06:45:45.570Z,95.26
2017-08-10T06:46:26.058Z,94.98
2017-08-10T06:47:06.509Z,94.4
2017-08-10T06:47:46.964Z,94.79
2017-08-10T06:48:27.398Z,93.83
2017-08-10T06:49:07.805Z,92.58
2017-08-10T06:49:48.327Z,92.49
2017-08-10T06:50:30.041Z,92.49
2017-08-10T06:51:10.702Z,93.54
2017-08-10T06:51:51.067Z,93.35
2017-08-10T06:52:31.538Z,93.54
2017-08-10T06:53:16.788Z,93.35
2017-08-10T06:53:57.203Z,92.97
2017-08-10T06:54:37.558Z,93.26
2017-08-10T06:55:17.954Z,93.35
2017-08-10T06:55:58.443Z,93.93
2017-08-10T06:56:38.891Z,94.21
2017-08-10T06:57:19.420Z,95.07
2017-08-10T06:57:59.796Z,94.31
2017-08-10T06:58:40.241Z,94.4
2017-08-10T06:59:20.638Z,94.89
2017-08-10T07:00:00.986Z,94.21
2017-08-10T07:00:41.445Z,94.59
2017-08-10T07:01:23.152Z,94.02
2017-08-10T07:02:03.609Z,93.35
2017-08-10T07:04:19.574Z,93.83
2017-08-10T07:10:04.034Z,94.59
2017-08-10T07:10:46.508Z,94.4
2017-08-10T07:11:26.920Z,94.02
2017-08-10T07:12:07.319Z,94.5
2017-08-10T07:12:47.824Z,93.93
2017-08-10T07:13:28.373Z,93.83
2017-08-10T07:14:08.728Z,94.31
2017-08-10T07:14:49.187Z,94.5
2017-08-10T07:15:30.053Z,95.17
2017-08-10T07:16:10.638Z,95.17
2017-08-10T07:16:50.891Z,94.31
2017-08-10T07:17:31.394Z,93.93
2017-08-10T07:18:11.783Z,94.12
2017-08-10T07:18:52.240Z,93.06
2017-08-10T07:19:32.854Z,94.07
2017-08-10T07:20:13.198Z,94.07
2017-08-10T07:20:53.641Z,93.59
2017-08-10T07:21:34.216Z,92.49
2017-08-10T07:22:14.639Z,93.44
2017-08-10T07:22:55.127Z,94.02
2017-08-10T07:23:35.593Z,93.63
2017-08-10T07:24:15.923Z,93.93
2017-08-10T07:24:56.410Z,94.02
2017-08-10T07:25:36.900Z,93.93
2017-08-10T07:26:17.348Z,94.89
2017-08-10T07:26:58.041Z,94.59
2017-08-10T07:27:38.466Z,94.12
2017-08-10T07:28:20.045Z,94.02
2017-08-10T07:29:00.126Z,93.83
2017-08-10T07:29:40.523Z,93.35
2017-08-10T07:30:21.025Z,93.26
2017-08-10T07:31:01.623Z,92.97
2017-08-10T07:31:42.518Z,93.44
2017-08-10T07:32:22.869Z,93.3
2017-08-10T07:33:03.272Z,93.21
2017-08-10T07:33:43.993Z,92.82
2017-08-10T07:34:24.704Z,92.44
2017-08-10T07:35:05.649Z,92.91
2017-08-10T07:35:46.226Z,92.34
2017-08-10T07:36:26.768Z,92.54
2017-08-10T07:37:07.301Z,92.54
2017-08-10T07:37:47.866Z,92.72
2017-08-10T07:38:28.204Z,93.78
2017-08-10T07:39:08.572Z,92.44
2017-08-10T07:39:49.086Z,92.72
2017-08-10T07:40:29.563Z,93.11
2017-08-10T07:41:10.294Z,93.26
2017-08-10T07:41:53.355Z,93.49
2017-08-10T07:42:33.762Z,93.35
2017-08-10T07:43:14.505Z,93.63
2017-08-10T07:43:54.915Z,94.5
2017-08-10T07:44:35.304Z,93.83
2017-08-10T07:45:15.886Z,94.12
2017-08-10T07:45:56.501Z,92.97
2017-08-10T07:46:36.890Z,92.54
2017-08-10T07:47:17.410Z,92.54
2017-08-10T07:47:58.026Z,92.44
2017-08-10T07:48:38.519Z,92.63
2017-08-10T07:49:19.054Z,91.67
2017-08-10T07:49:59.336Z,91.67
2017-08-10T07:50:39.797Z,91.28
2017-08-10T07:51:20.198Z,91.62
2017-08-10T07:52:00.641Z,91.72
2017-08-10T07:52:41.256Z,92.48
2017-08-10T07:53:21.760Z,92.54
2017-08-10T07:54:02.312Z,92.54
2017-08-10T07:54:42.589Z,92.77
2017-08-10T07:55:23.157Z,92.48
2017-08-10T07:56:05.161Z,92.44
2017-08-10T07:56:44.737Z,92.91
2017-08-10T07:57:25.108Z,92.54
2017-08-10T07:58:05.894Z,92.15
2017-08-10T07:58:46.177Z,91.57
2017-08-10T07:59:26.865Z,92.15
2017-08-10T08:00:07.355Z,92.34
2017-08-10T08:00:47.977Z,92.34
2017-08-10T08:01:28.479Z,92.72
2017-08-10T08:02:08.823Z,92.63
2017-08-10T08:02:49.276Z,92.05
2017-08-10T08:03:29.882Z,91
2017-08-10T08:04:10.350Z,91.19
2017-08-10T08:04:51.047Z,91
2017-08-10T08:05:31.718Z,90.66
2017-08-10T08:06:12.108Z,91.72
2017-08-10T08:06:52.678Z,92.34
2017-08-10T08:07:33.295Z,92.24
2017-08-10T08:08:13.489Z,92.54
2017-08-10T08:08:54.133Z,92.54
2017-08-10T08:09:34.448Z,91.86
2017-08-10T08:10:14.740Z,91.67
2017-08-10T08:10:55.639Z,92.34
2017-08-10T08:11:36.133Z,91.86
2017-08-10T08:12:16.673Z,92.15
2017-08-10T08:12:56.962Z,91.67
2017-08-10T08:13:37.484Z,91.57
2017-08-10T08:14:18.226Z,92.15
2017-08-10T08:14:58.534Z,92.15
2017-08-10T08:15:39.022Z,92.54
2017-08-10T08:16:19.592Z,92.44
2017-08-10T08:17:00.022Z,93.11
2017-08-10T08:17:40.469Z,91.96
2017-08-10T08:18:21.321Z,92.54
2017-08-10T08:19:01.924Z,93.21
2017-08-10T08:19:42.278Z,93.3
2017-08-10T08:20:22.782Z,92.72
2017-08-10T08:21:03.816Z,92.82
2017-08-10T08:21:44.310Z,92.82
2017-08-10T08:22:24.848Z,92.91
2017-08-10T08:23:05.393Z,92.44
2017-08-10T08:23:46.846Z,92.82
2017-08-10T08:24:27.388Z,92.44
2017-08-10T08:25:08.723Z,92.72
2017-08-10T08:25:48.627Z,92.91
2017-08-10T08:26:29.024Z,92.44
2017-08-10T08:27:09.733Z,92.54
2017-08-10T08:27:50.103Z,92.29
2017-08-10T08:28:30.834Z,92.72
2017-08-10T08:29:11.245Z,93.73
2017-08-10T08:29:51.681Z,93.21
2017-08-10T08:30:32.349Z,92.44
2017-08-10T08:31:12.728Z,92.63
2017-08-10T08:31:53.315Z,92.58
2017-08-10T08:32:34.189Z,91.33
2017-08-10T08:33:14.399Z,91.05
2017-08-10T08:33:54.903Z,91.24
2017-08-10T08:34:35.416Z,91.52
2017-08-10T08:35:16.720Z,91.24
2017-08-10T08:35:57.206Z,91.52
2017-08-10T08:36:37.520Z,90.95
2017-08-10T08:37:17.986Z,91.14
2017-08-10T08:37:58.345Z,90.56
2017-08-10T08:38:38.964Z,90.28
2017-08-10T08:39:19.528Z,90.61
2017-08-10T08:39:59.897Z,90.32
2017-08-10T08:40:40.279Z,90.22
2017-08-10T08:41:20.706Z,89.65
2017-08-10T08:42:01.088Z,89.55
2017-08-10T08:42:41.601Z,89.07
2017-08-10T08:43:22.021Z,88.35
2017-08-10T08:44:02.457Z,88.4
2017-08-10T08:44:42.862Z,88.73
2017-08-10T08:45:23.289Z,88.35
2017-08-10T08:46:03.683Z,87.87
2017-08-10T08:46:44.165Z,87.87
2017-08-10T08:47:24.568Z,88.06
2017-08-10T08:48:05.077Z,87.39
2017-08-10T08:48:45.570Z,88.16
2017-08-10T08:49:25.992Z,87.87
2017-08-10T08:50:06.337Z,88.73
2017-08-10T08:50:46.813Z,88.93
2017-08-10T08:51:27.259Z,89.5
2017-08-10T08:52:07.637Z,89.69
2017-08-10T08:52:48.561Z,89.36
2017-08-10T08:53:28.785Z,87.58
2017-08-10T08:54:09.436Z,87.96
2017-08-10T08:54:50.036Z,88.35
2017-08-10T08:55:30.459Z,88.45
2017-08-10T08:56:10.898Z,87.87
2017-08-10T08:56:51.235Z,88.54
2017-08-10T08:57:31.780Z,88.64
2017-08-10T08:58:12.280Z,89.4